Terminal Aerodrome Forecast
Issued by NWS

Home | Current Version | Previous Version | Text Only | Print | Product List | Glossary On
Versions: 1 2 3 4 5 6 7 8 9 10 11 12 13 14 15 16 17 18 19 20 21
000
FTUS43 KBIS 211600 AAB
TAFMOT
TAF AMD
KMOT 211618Z 2116/2212 31010KT P6SM SCT008 OVC011
      TEMPO 2116/2120 SCT015
     FM212000 35008KT P6SM BKN050
     FM220700 04008KT P6SM VCTS BKN050CB=

USA.gov is the U.S. government's official web portal to all federal, state and local government web resources and services.